Airfield :
LOGIN :

Register | Disclaimer

   EN    FR    IT 

 










Legend :    VFR   Marginal VFR   IFR   Intensive IFR   Very Intensive IFR
Visi :
Ceiling :
>= 8 km
>= 3000ft
5 to 8 km
1000 to 3000 ft
1500m to 5 km
500 to 1000 ft
800 to 1500m
200 to 500 ft
< 800m
< 200 ft
Symbols :   Thunderstorms  Fog  Heavy snow  Heavy precipitations  Wind > 20 kt
SIGMETs :     Misc.  Thunderstorms  Icing  Turbulence  Mountain Waves  Volcanic Ashes






- Airport Elevation : 1516 ft
- IATA code : AGB


EDMA - Augsburg

CURRENT METAR :
  • 031550Z AUTO 31007KT 280V340 9999 // OVC070/// 11/M01 Q1016

EXPIRED METARs :
  • 031520Z AUTO 32009KT 9999 // OVC071/// 11/M01 Q1016
  • 031450Z 34007KT 310V020 CAVOK 11/M01 Q1016
  • 031420Z 32007KT 280V350 CAVOK 11/M02 Q1015
  • 031350Z 26004KT 150V310 CAVOK 12/M01 Q1015
  • 031320Z 31007KT 280V360 CAVOK 11/M01 Q1015

TAF TAF EDMA
Valid from the 03 at 15:00 until the 04 at 00:00 UTC


031400Z 0315/0324 27010KT 9999 FEW045
BECMG 0316/0318 34003KT



MET'MAP, your aeronautical weather chart ! - Copyright ORBIFLY December 2007 - Disclaimer

ORBIFLY MET'MAP TEAM :

Programming & Development : Alexandra Zaïnal
Concept & original design : Baudouin d'Aumeries
Assistance for programming : Marc-Olivier Méhu
Technical & hardware support : Manuel Goepfert

Contact : metmap@orbifly.com




SOURCES & CREDITS :

   NOAA